Flight Track Log - Related Links

Times and Time Zones

All times are in EDT time to prevent confusion due to time zone crossing. See the N343CW flight status page for this flight to view local times or setup timezone preferences in your user account.

Time Position Orientation Groundspeed Altitude Reporting Facility
EDT Latitude Longitude Course Direction KTS MPH feet Rate Location/Type
Mon 09:39:09 AM 41.1139 -100.6575 80° East 124 143 3,300  Level Denver Center
Mon 09:40:11 AM 41.1083 -100.6069 98° East 164 189 4,300 1,024 Climbing Denver Center
Mon 09:41:00 AM 41.1776 -100.1248 84° East  Level FlightAware Approximate
Mon 09:41:12 AM 41.1181 -100.5478 78° East 171 197 5,400  Level Denver Center
Mon 09:42:00 AM 41.1871 -100.0313 75° East  Level FlightAware Approximate
Mon 09:42:13 AM 41.1258 -100.4775 82° East 171 197 6,700  Level Denver Center
Mon 09:43:00 AM 41.2037 -99.9394 80° East  Level FlightAware Approximate
Mon 09:43:15 AM 41.1339 -100.4167 80° East 171 197 7,700  Level Denver Center
Mon 09:44:00 AM 41.2161 -99.8463 80° East  Level FlightAware Approximate
Mon 09:44:16 AM 41.1431 -100.3439 80° East 174 200 9,000  Level Denver Center
Mon 09:45:18 AM 41.1511 -100.2800 80° East 179 206 10,000 927 Climbing Denver Center
Mon 09:46:19 AM 41.1594 -100.2133 81° East 186 214 10,900 1,033 Climbing Denver Center
Mon 09:47:20 AM 41.1694 -100.1306 81° East 196 226 12,100 1,073 Climbing Denver Center
Mon 09:48:22 AM 41.1786 -100.0592 80° East 201 231 13,100 1,024 Climbing Denver Center
Mon 09:49:23 AM 41.1894 -99.9736 80° East 207 238 14,200 976 Climbing Denver Center
Mon 09:50:25 AM 41.1983 -99.8986 81° East 211 243 15,100 780 Climbing Denver Center
Mon 09:51:26 AM 41.2086 -99.8211 80° East 219 252 15,800 829 Climbing Denver Center
Mon 09:52:28 AM 41.2186 -99.7269 82° East 226 260 16,800 878 Climbing Denver Center
Mon 09:53:29 AM 41.2286 -99.6478 80° East 226 260 17,600 780 Climbing Denver Center
Mon 09:54:31 AM 41.2403 -99.5567 80° East 226 260 18,400 677 Climbing Denver Center
Mon 09:55:33 AM 41.2489 -99.4767 82° East 226 260 19,000 585 Climbing Denver Center
Mon 09:56:34 AM 41.2589 -99.3964 81° East 227 261 19,600 585 Climbing Denver Center
Mon 09:57:36 AM 41.2681 -99.3119 82° East 227 261 20,200 537 Climbing Denver Center
Mon 09:58:37 AM 41.2781 -99.2264 81° East 231 266 20,700 581 Climbing Denver Center
Mon 09:59:40 AM 41.2906 -99.1228 81° East 233 268 21,400 714 Climbing Denver Center
Mon 10:00:43 AM 41.2992 -99.0439 82° East 224 258 22,200 576 Climbing Minneapolis Center
Mon 10:01:45 AM 41.3086 -98.9628 81° East 223 257 22,600 439 Climbing Minneapolis Center
Mon 10:02:46 AM 41.3181 -98.8797 81° East 225 259 23,100 537 Climbing Minneapolis Center
Mon 10:03:48 AM 41.3292 -98.7794 82° East 227 261 23,700 484 Climbing Minneapolis Center
Mon 10:04:50 AM 41.3386 -98.6944 82° East 231 266 24,100 435 Climbing Minneapolis Center
Mon 10:05:52 AM 41.3483 -98.6083 81° East 233 268 24,600 435 Climbing Minneapolis Center
Mon 10:06:54 AM 41.3578 -98.5214 82° East 235 270 25,000 390 Climbing Minneapolis Center
Mon 10:07:55 AM 41.3686 -98.4228 82° East 237 273 25,400 341 Climbing Minneapolis Center
Mon 10:08:57 AM 41.3753 -98.3339 84° East 242 278 25,700 290 Climbing Minneapolis Center
Mon 10:09:59 AM 41.3736 -98.2425 91° East 244 281 26,000 290 Climbing Minneapolis Center
Mon 10:11:01 AM 41.3717 -98.1503 92° East 247 284 26,300 244 Climbing Minneapolis Center
Mon 10:12:02 AM 41.3694 -98.0525 92° East 248 285 26,500 244 Climbing Minneapolis Center
Mon 10:13:04 AM 41.3672 -97.9592 92° East 251 289 26,800 242 Climbing Minneapolis Center
Mon 10:14:06 AM 41.3650 -97.8644 92° East 254 292 27,000 97 Climbing Minneapolis Center
Mon 10:15:08 AM 41.3622 -97.7672 92° East 263 303 27,000  Level Minneapolis Center
Mon 10:16:10 AM 41.3597 -97.6669 92° East 271 312 27,000  Level Minneapolis Center
Mon 10:17:12 AM 41.3569 -97.5650 92° East 273 314 27,000  Level Minneapolis Center
Mon 10:18:13 AM 41.3533 -97.4417 92° East 276 318 27,000  Level Minneapolis Center
Mon 10:19:15 AM 41.3503 -97.3383 92° East 278 320 27,000  Level Minneapolis Center
Mon 10:25:20 AM 41.3300 -96.7056 93° East 280 322 27,000  Level FlightAware ADS-B
Mon 10:25:50 AM 41.3281 -96.6529 93° East 281 323 27,000  Level FlightAware ADS-B
Mon 10:26:21 AM 41.3262 -96.5997 93° East 281 323 27,000  Level FlightAware ADS-B
Mon 10:26:52 AM 41.3243 -96.5467 93° East 282 325 27,000  Level FlightAware ADS-B
Mon 10:27:23 AM 41.3223 -96.4931 93° East 282 325 27,000  Level FlightAware ADS-B
Mon 10:27:54 AM 41.3203 -96.4395 93° East 282 325 27,000  Level FlightAware ADS-B
Mon 10:28:25 AM 41.3183 -96.3856 93° East 282 325 27,000  Level FlightAware ADS-B
Mon 10:28:55 AM 41.3163 -96.3333 93° East 282 325 27,000  Level FlightAware ADS-B
Mon 10:29:25 AM 41.3143 -96.2808 93° East 283 326 27,000  Level FlightAware ADS-B
Mon 10:29:56 AM 41.3123 -96.2285 93° East 282 325 27,000  Level FlightAware ADS-B
Mon 10:30:26 AM 41.3102 -96.1763 93° East 281 323 27,000  Level FlightAware ADS-B
Mon 10:30:56 AM 41.3081 -96.1238 93° East 282 325 27,000  Level FlightAware ADS-B
Mon 10:31:26 AM 41.3060 -96.0720 93° East 282 325 27,000  Level FlightAware ADS-B
Mon 10:31:56 AM 41.3039 -96.0197 93° East 283 326 27,000  Level FlightAware ADS-B
Mon 10:32:27 AM 41.3017 -95.9670 93° East 284 327 27,000  Level FlightAware ADS-B
Mon 10:32:57 AM 41.2994 -95.9141 93° East 283 326 27,000  Level FlightAware ADS-B
Mon 10:33:27 AM 41.2972 -95.8618 93° East 282 325 27,000  Level FlightAware ADS-B
Mon 10:33:58 AM 41.2950 -95.8087 93° East 283 326 27,000  Level FlightAware ADS-B
Mon 10:34:28 AM 41.2928 -95.7566 93° East 282 325 27,000  Level FlightAware ADS-B
Mon 10:35:02 AM 41.2902 -95.6982 93° East 284 327 27,000  Level FlightAware ADS-B
Mon 10:35:32 AM 41.2879 -95.6461 93° East 283 326 27,000  Level FlightAware ADS-B
Mon 10:36:03 AM 41.2855 -95.5930 93° East 282 325 27,000  Level FlightAware ADS-B
Mon 10:36:33 AM 41.2832 -95.5409 93° East 282 325 27,000  Level FlightAware ADS-B
Mon 10:37:03 AM 41.2808 -95.4890 93° East 282 325 27,000  Level FlightAware ADS-B
Mon 10:37:52 AM 41.2775 -95.4203 93° East 281 323 27,000  Level Minneapolis Center
Mon 10:43:42 AM 41.2476 -94.8072 94° East 281 323 27,000  Level FlightAware ADS-B
Mon 10:44:41 AM 41.2425 -94.7100 94° East 281 323 27,000  Level FlightAware ADS-B
Mon 10:45:20 AM 41.2385 -94.6329 94° East 281 323 27,000  Level FlightAware ADS-B
Mon 10:46:01 AM 41.2349 -94.5659 94° East 281 323 27,000  Level FlightAware ADS-B
Mon 10:46:37 AM 41.2315 -94.5026 94° East 280 322 27,000  Level FlightAware ADS-B
Mon 10:47:18 AM 41.2276 -94.4316 94° East 279 321 27,000  Level FlightAware ADS-B
Mon 10:48:21 AM 41.2227 -94.3428 94° East 280 322 27,000  Level FlightAware ADS-B
Mon 10:49:42 AM 41.2138 -94.1850 94° East 279 321 27,000  Level FlightAware ADS-B
Mon 10:50:55 AM 41.2067 -94.0614 94° East 278 320 27,000  Level FlightAware ADS-B
Mon 10:52:36 AM 41.1965 -93.8892 94° East 280 322 27,000  Level FlightAware ADS-B
Mon 10:53:24 AM 41.1926 -93.8066 94° East 279 321 27,000  Level FlightAware ADS-B
Mon 10:54:20 AM 41.1888 -93.7267 94° East 279 321 27,000  Level FlightAware ADS-B
Mon 10:54:56 AM 41.1849 -93.6498 94° East 279 321 27,000  Level FlightAware ADS-B
Mon 10:55:53 AM 41.1807 -93.5690 94° East 279 321 27,000  Level FlightAware ADS-B
Mon 10:56:30 AM 41.1769 -93.4967 94° East 278 320 27,000  Level Minneapolis Center
Mon 10:57:33 AM 41.1719 -93.4019 94° East 277 319 27,000  Level Minneapolis Center
Mon 10:58:35 AM 41.1667 -93.3011 94° East 276 318 27,000  Level Minneapolis Center
Mon 10:59:39 AM 41.1603 -93.1808 94° East 275 316 27,000  Level Minneapolis Center
Mon 11:00:41 AM 41.1547 -93.0808 94° East 275 316 27,000  Level Minneapolis Center
Mon 11:01:43 AM 41.1489 -92.9808 94° East 274 315 27,000  Level Minneapolis Center
Mon 11:11:47 AM 41.1368 -92.7689 95° East 267 307 27,000  Level FlightAware ADS-B
Mon 11:14:45 AM 41.0684 -91.6857 95° East 267 307 27,000  Level FlightAware ADS-B
Mon 11:23:21 AM 41.0076 -90.8396 96° East 269 310 27,000  Level FlightAware ADS-B
Mon 11:30:54 AM 40.9498 -90.1051 96° East 263 303 27,000  Level FlightAware ADS-B
Mon 11:32:12 AM 40.9395 -89.9799 96° East 264 304 27,000  Level FlightAware ADS-B
Mon 11:33:14 AM 40.9328 -89.9000 96° East 264 304 27,000  Level Chicago Center
Mon 11:34:16 AM 40.9231 -89.7853 96° East 263 303 27,000  Level Chicago Center
Mon 11:42:57 AM 40.8518 -88.9785 97° East 254 292 27,000  Level FlightAware ADS-B
Mon 11:43:50 AM 40.8437 -88.8904 97° East 254 292 27,000  Level FlightAware ADS-B
Mon 11:44:42 AM 40.8425 -88.8771 97° East 255 293 27,000  Level FlightAware ADS-B
Mon 11:45:44 AM 40.8270 -88.7130 97° East 256 295 27,000  Level FlightAware ADS-B
Mon 11:46:19 AM 40.8218 -88.6579 97° East 257 296 27,000  Level FlightAware ADS-B
Mon 11:47:06 AM 40.8205 -88.6442 97° East 257 296 27,000  Level FlightAware ADS-B
Mon 11:48:08 AM 40.8060 -88.4917 97° East 257 296 27,000  Level FlightAware ADS-B
Mon 11:48:48 AM 40.8030 -88.4612 97° East 260 299 27,000  Level FlightAware ADS-B
Mon 11:49:29 AM 40.7933 -88.3619 97° East 260 299 27,000  Level FlightAware ADS-B
Mon 11:50:06 AM 40.7879 -88.3061 97° East 260 299 27,000  Level FlightAware ADS-B
Mon 11:50:37 AM 40.7828 -88.2543 98° East 262 302 27,000  Level FlightAware ADS-B
Mon 11:51:12 AM 40.7775 -88.2002 98° East 261 300 27,000  Level FlightAware ADS-B
Mon 11:51:55 AM 40.7767 -88.1923 97° East 263 303 27,000  Level FlightAware ADS-B
Mon 11:52:37 AM 40.7642 -88.0676 98° East 263 303 27,000  Level FlightAware ADS-B
Mon 11:53:16 AM 40.7578 -88.0042 98° East 265 305 27,000  Level FlightAware ADS-B
Mon 11:53:57 AM 40.7540 -87.9667 98° East 265 305 27,000  Level FlightAware ADS-B
Mon 11:54:37 AM 40.7446 -87.8733 98° East 264 304 27,000  Level FlightAware ADS-B
Mon 11:55:20 AM 40.7376 -87.8046 98° East 265 305 27,000  Level FlightAware ADS-B
Mon 11:56:22 AM 40.7275 -87.7065 98° East 266 306 27,000  Level FlightAware ADS-B
Mon 11:57:25 AM 40.7169 -87.6044 98° East 266 306 27,000  Level FlightAware ADS-B
Mon 11:58:39 AM 40.7054 -87.4952 98° East 267 307 27,000  Level FlightAware ADS-B
Mon 11:59:31 AM 40.6955 -87.4022 98° East 268 308 27,000  Level FlightAware ADS-B
Mon 12:00:30 PM 40.6854 -87.3069 98° East 267 307 27,000  Level FlightAware ADS-B
Mon 12:01:45 PM 40.6726 -87.1877 98° East 268 308 27,000  Level FlightAware ADS-B
Mon 12:02:32 PM 40.6643 -87.1108 98° East 269 310 27,000  Level FlightAware ADS-B
Mon 12:03:38 PM 40.6528 -87.0055 98° East 269 310 27,000  Level FlightAware ADS-B
Mon 12:04:39 PM 40.6419 -86.9067 98° East 269 310 27,000  Level FlightAware ADS-B
Mon 12:06:00 PM 40.6271 -86.7738 98° East 269 310 27,000  Level FlightAware ADS-B
Mon 12:07:11 PM 40.6150 -86.6656 98° East 268 308 27,000  Level FlightAware ADS-B
Mon 12:08:10 PM 40.6036 -86.5654 98° East 267 307 27,000  Level FlightAware ADS-B
Mon 12:09:10 PM 40.5926 -86.4692 99° East 267 307 27,000  Level FlightAware ADS-B
Mon 12:11:57 PM 40.5618 -86.2028 99° East 266 306 27,000  Level FlightAware ADS-B
Mon 12:12:37 PM 40.5558 -86.1522 99° East 265 305 27,000  Level Chicago Center
Mon 12:13:39 PM 40.5444 -86.0558 99° East 266 306 27,000  Level Chicago Center
Mon 12:14:41 PM 40.5331 -85.9589 99° East 267 307 27,000  Level Chicago Center
Mon 12:15:43 PM 40.5214 -85.8622 99° East 267 307 27,000  Level Chicago Center
Mon 12:16:46 PM 40.5075 -85.7461 99° East 268 308 27,000  Level Chicago Center
Mon 12:17:48 PM 40.4956 -85.6492 99° East 271 312 27,000  Level Chicago Center
Mon 12:19:52 PM 40.4717 -85.4556 99° East 269 310 27,000  Level Chicago Center
Mon 12:20:54 PM 40.4597 -85.3581 99° East 270 311 27,000  Level Chicago Center
Mon 12:21:57 PM 40.4475 -85.2611 99° East 270 311 27,000  Level Chicago Center
Mon 12:22:59 PM 40.4328 -85.1442 99° East 270 311 27,000  Level Chicago Center
Mon 12:24:01 PM 40.4203 -85.0464 100° East 271 312 27,000 -541 Level Chicago Center
Mon 12:25:01 PM 40.4072 -84.9431 99° East 298 343 25,900 -1,279 Descending Indianapolis Center
Mon 12:26:03 PM 40.3939 -84.8392 100° East 310 357 24,400 -1,122 Descending Indianapolis Center
Mon 12:27:04 PM 40.3797 -84.7297 100° East 304 350 23,600 -878 Descending Indianapolis Center
Mon 12:28:06 PM 40.3633 -84.6056 100° East 287 330 22,600 -871 Descending Indianapolis Center
Mon 12:29:08 PM 40.3503 -84.5058 100° East 280 322 21,800 -780 Descending Indianapolis Center
Mon 12:30:09 PM 40.3372 -84.4072 100° East 277 319 21,000 -800 Descending Indianapolis Center
Mon 12:30:53 PM 40.3264 -84.3275 100° East 270 311 20,400 -774 Descending Indianapolis Center
Mon 12:31:11 PM 40.3242 -84.3100 99° East 272 313 20,200 -837 Descending Indianapolis Center
Mon 12:31:36 PM 40.3167 -84.2597 101° East 263 303 19,800 -1,258 Descending Indianapolis Center
Mon 12:32:13 PM 40.3111 -84.2144 99° East 272 313 18,900 -1,900 Descending Indianapolis Center
Mon 12:32:36 PM 40.3039 -84.1611 100° East 281 323 17,900 -1,839 Descending Indianapolis Center
Mon 12:33:15 PM 40.2975 -84.1142 100° East 279 321 17,000 -1,967 Descending Indianapolis Center
Mon 12:33:37 PM 40.2908 -84.0653 100° East 283 326 15,900 -1,967 Descending Indianapolis Center
Mon 12:34:16 PM 40.2833 -84.0142 101° East 279 321 15,000 -1,900 Descending Indianapolis Center
Mon 12:34:37 PM 40.2742 -83.9636 103° East 261 300 14,000 -2,226 Descending Indianapolis Center
Mon 12:35:18 PM 40.2636 -83.9078 104° East 242 278 12,700 -1,970 Descending Indianapolis Center
Mon 12:35:44 PM 40.2583 -83.8728 101° East 231 266 11,800 -1,935 Descending Indianapolis Center
Mon 12:36:20 PM 40.2492 -83.8269 105° East 229 264 10,700 -1,967 Descending Indianapolis Center
Mon 12:36:45 PM 40.2433 -83.7933 103° East 221 254 9,800 -1,645 Descending Indianapolis Center
Mon 12:37:22 PM 40.2358 -83.7528 104° East 198 228 9,000 -1,475 Descending Indianapolis Center
Mon 12:37:46 PM 40.2292 -83.7250 107° East 184 212 8,300 -1,500 Descending Indianapolis Center
Mon 12:38:34 PM 40.2222 -83.6692 99° East 179 206 7,200 -1,394 Descending Indianapolis Center
Mon 12:39:25 PM 40.2128 -83.6258 106° East 177 204 6,000 -1,672 Descending Indianapolis Center
Mon 12:39:35 PM 40.2092 -83.6092 106° East 174 200 5,500 -1,548 Descending Indianapolis Center
Mon 12:40:27 PM 40.2031 -83.5656 100° East 173 199 4,400 -1,263 Descending Indianapolis Center
Mon 12:41:29 PM 40.2097 -83.5072 81° East 169 194 3,100 -774 Descending Indianapolis Center
Mon 12:42:31 PM 40.2158 -83.4411 83° East 162 186 2,800 -290 Descending Indianapolis Center

Login

Don't have an account? Register now (free) for customized features, flight alerts, and more!